METAR AND TAF INFORMATION
METAR FOR SBPA
ADDS - METARS form results

(1800 UTC 24 September 2020)
Data provider http://aviationweather.gov/metar/data/
 
Forecast for: SBPA (PORTO ALEGRE/SAL, BR)
Text: TAF SBPA 241500Z 2418/2518 12008KT CAVOK TN14/2506Z TX27/2518Z RMK PEG
Forecast period: 1800 UTC 24 September 2020 to 1800 UTC 25 September 2020
Forecast type: FROM: standard forecast or significant change
Winds: from the ESE (120 degrees) at 9 MPH (8 knots; 4.1 m/s)
Visibility: 6 or more miles (10+ km)
Ceiling: unknown
Clouds: missing
Weather: no significant weather forecast for this period

 AIRPORT MAP


 RUNWAY INFORMATION
Runway 11 Runway length 7480 ft Runway width 138 ft
Runway elevation 11 ft Runway displaced threshold 0 ft Runway heading 91
Runway 29 Runway length 7480 ft Runway width 138 ft
Runway elevation 11 ft Runway displaced threshold 0 ft Runway heading 271

 AIRPORT FREQUENCIES
Type APP Name PALEGRE AP Frequency 119 MHZ
Type ATIS Name ATIS Frequency 127.85 MHZ
Type GND Name GND Frequency 121.9 MHZ
Type TWR Name PALEGRE TW Frequency 118.1 MHZ

 AIRPORT NEAR NAVIGATION AIDS
Type NDB Name Pestana Frequency 395 KHZ
Type NDB Name Guaiba Frequency 345 KHZ
Type NDB Name Salgado Frequency 315 KHZ
Type NDB Name Porto Alegre Frequency 330 KHZ
Type VOR-DME Name Porto Alegre Frequency 114000 KHZ



Powered by Virtual Airlines Manager [v2.6.2]